createdAt,value
2022-08-21T00:27:26.474Z,17.20
2022-08-21T00:29:56.357Z,17.20
2022-08-21T00:32:27.117Z,17.20
2022-08-21T00:34:57.590Z,17.10
2022-08-21T00:37:26.858Z,17.10
2022-08-21T00:39:55.786Z,17.10
2022-08-21T00:45:35.704Z,17.10
2022-08-21T00:48:05.196Z,17.00
2022-08-21T00:50:44.145Z,17.00
2022-08-21T00:59:39.177Z,17.00
2022-08-21T01:09:55.993Z,16.90
2022-08-21T01:12:25.566Z,16.80
2022-08-21T01:14:54.575Z,16.80
2022-08-21T01:17:25.461Z,16.80
2022-08-21T01:19:54.277Z,16.80
2022-08-21T01:25:35.496Z,16.70
2022-08-21T01:28:09.889Z,16.70
2022-08-21T01:30:40.526Z,16.70
2022-08-21T01:33:13.668Z,16.60
2022-08-21T01:35:42.869Z,16.60
2022-08-21T01:38:11.588Z,16.60
2022-08-21T01:40:41.645Z,16.60
2022-08-21T01:43:10.066Z,16.50
2022-08-21T01:45:38.372Z,16.50
2022-08-21T01:48:06.802Z,16.50
2022-08-21T01:50:36.869Z,16.50
2022-08-21T01:56:14.918Z,16.50
2022-08-21T01:58:44.291Z,16.50
2022-08-21T02:01:12.592Z,16.50
2022-08-21T02:03:42.637Z,16.40
2022-08-21T02:06:18.322Z,16.40
2022-08-21T02:08:47.113Z,16.40
2022-08-21T02:11:17.108Z,16.40
2022-08-21T02:13:45.351Z,16.20
2022-08-21T02:16:17.293Z,16.20
2022-08-21T02:18:48.093Z,16.20
2022-08-21T02:21:17.024Z,16.10
2022-08-21T02:23:45.282Z,16.10
2022-08-21T02:26:14.024Z,16.10
2022-08-21T02:28:43.741Z,16.10
2022-08-21T02:31:12.445Z,16.00
2022-08-21T02:33:41.856Z,16.00
2022-08-21T02:36:12.162Z,16.00
2022-08-21T02:38:42.109Z,16.00
2022-08-21T02:41:21.687Z,15.90
2022-08-21T02:43:51.840Z,16.00
2022-08-21T02:46:22.077Z,16.00
2022-08-21T02:48:50.459Z,16.00
2022-08-21T02:51:21.153Z,16.00
2022-08-21T02:53:50.044Z,15.90
2022-08-21T02:56:20.820Z,15.90
2022-08-21T02:58:55.605Z,15.90
2022-08-21T03:01:24.022Z,15.90
2022-08-21T03:03:52.689Z,15.80
2022-08-21T03:06:23.659Z,15.80
2022-08-21T03:08:51.981Z,15.80
2022-08-21T03:11:21.705Z,15.80
2022-08-21T03:13:49.968Z,15.90
2022-08-21T03:16:20.509Z,15.90
2022-08-21T03:18:48.816Z,15.90
2022-08-21T03:21:18.612Z,15.90
2022-08-21T03:23:47.534Z,15.90
2022-08-21T03:26:16.385Z,15.90
2022-08-21T03:28:44.979Z,15.90
2022-08-21T03:31:13.343Z,15.90
2022-08-21T03:33:42.979Z,15.90
2022-08-21T03:36:11.978Z,15.90
2022-08-21T03:38:41.423Z,15.90
2022-08-21T03:41:10.711Z,15.90
2022-08-21T03:43:39.467Z,15.90
2022-08-21T03:46:08.942Z,15.90
2022-08-21T03:48:38.348Z,15.90
2022-08-21T03:51:08.640Z,15.80
2022-08-21T03:53:37.313Z,15.80
2022-08-21T03:56:06.825Z,15.80
2022-08-21T03:58:35.591Z,15.90
2022-08-21T04:01:05.716Z,15.90
2022-08-21T04:03:36.173Z,15.80
2022-08-21T04:06:05.229Z,15.80
2022-08-21T04:08:35.261Z,15.80
2022-08-21T04:11:04.015Z,15.80
2022-08-21T04:13:32.299Z,15.80
2022-08-21T04:16:00.528Z,15.90
2022-08-21T04:18:28.801Z,15.80
2022-08-21T04:20:59.162Z,15.80
2022-08-21T04:23:28.051Z,15.80
2022-08-21T04:25:58.845Z,15.80
2022-08-21T04:28:31.142Z,15.80
2022-08-21T04:31:00.108Z,15.80
2022-08-21T04:33:28.546Z,15.80
2022-08-21T04:35:56.883Z,15.80
2022-08-21T04:38:25.264Z,15.80
2022-08-21T04:40:54.055Z,15.80
2022-08-21T04:43:24.473Z,15.80
2022-08-21T04:45:53.857Z,15.80
2022-08-21T04:48:25.385Z,15.80
2022-08-21T04:50:58.920Z,15.80
2022-08-21T04:53:32.510Z,15.80
2022-08-21T04:56:06.436Z,15.80
2022-08-21T04:58:37.113Z,15.80
2022-08-21T05:01:08.642Z,15.70
2022-08-21T05:03:38.849Z,15.70
2022-08-21T05:06:10.299Z,15.70
2022-08-21T05:08:40.010Z,15.70
2022-08-21T05:11:08.911Z,15.70
2022-08-21T05:13:38.644Z,15.70
2022-08-21T05:16:07.398Z,15.80
2022-08-21T05:18:35.713Z,15.80
2022-08-21T05:21:04.492Z,15.80
2022-08-21T05:23:33.312Z,15.80
2022-08-21T05:26:02.087Z,15.80
2022-08-21T05:28:30.371Z,15.80
2022-08-21T05:31:00.306Z,15.80
2022-08-21T05:33:28.740Z,15.80
2022-08-21T05:35:57.925Z,15.70
2022-08-21T05:38:28.261Z,15.70
2022-08-21T05:40:57.065Z,15.70
2022-08-21T05:43:25.377Z,15.70
2022-08-21T05:45:53.793Z,15.80
2022-08-21T05:48:28.008Z,15.80
2022-08-21T05:51:00.508Z,15.80
2022-08-21T05:53:42.272Z,15.80
2022-08-21T05:56:32.293Z,15.80
2022-08-21T05:59:12.008Z,15.80
2022-08-21T06:02:01.169Z,15.90
2022-08-21T06:04:38.236Z,15.90
2022-08-21T06:07:19.288Z,15.90
2022-08-21T06:09:57.435Z,15.90
2022-08-21T06:12:25.829Z,16.00
2022-08-21T06:15:03.879Z,16.00
2022-08-21T06:17:38.332Z,16.00
2022-08-21T06:20:17.378Z,16.00
2022-08-21T06:22:56.036Z,16.00
2022-08-21T06:25:26.418Z,16.10
2022-08-21T06:28:20.930Z,16.20
2022-08-21T06:30:52.327Z,16.30
2022-08-21T06:33:22.406Z,16.30
2022-08-21T06:36:10.224Z,16.40
2022-08-21T06:38:51.067Z,16.40
2022-08-21T06:41:26.435Z,16.50
2022-08-21T06:44:00.845Z,16.60
2022-08-21T06:46:31.715Z,16.60
2022-08-21T06:49:00.179Z,16.70
2022-08-21T06:51:30.497Z,16.70
2022-08-21T06:53:59.466Z,16.70
2022-08-21T06:56:28.047Z,16.70
2022-08-21T06:58:56.455Z,16.70
2022-08-21T07:01:27.757Z,16.80
2022-08-21T07:03:56.079Z,16.80
2022-08-21T07:06:24.421Z,16.90
2022-08-21T07:08:54.074Z,16.90
2022-08-21T07:11:25.382Z,17.00
2022-08-21T07:13:55.254Z,17.10
2022-08-21T07:16:24.309Z,17.20
2022-08-21T07:18:52.685Z,17.30
2022-08-21T07:21:25.588Z,17.40
2022-08-21T07:23:55.895Z,17.50
2022-08-21T07:26:26.918Z,17.60
2022-08-21T07:28:55.936Z,17.60
2022-08-21T07:31:27.068Z,17.70
2022-08-21T07:33:55.998Z,17.70
2022-08-21T07:36:24.544Z,17.80
2022-08-21T07:38:53.209Z,17.80
2022-08-21T07:41:25.579Z,17.90
2022-08-21T07:43:54.340Z,17.90
2022-08-21T07:46:22.879Z,18.00
2022-08-21T07:48:51.174Z,18.00
2022-08-21T07:51:27.236Z,18.10
2022-08-21T07:53:57.078Z,18.10
2022-08-21T07:56:26.845Z,18.10
2022-08-21T07:58:56.748Z,18.20
2022-08-21T08:01:25.618Z,18.30
2022-08-21T08:03:54.190Z,18.30
2022-08-21T08:06:22.819Z,18.30
2022-08-21T08:08:51.561Z,18.40
2022-08-21T08:11:19.882Z,18.60
2022-08-21T08:13:51.426Z,18.60
2022-08-21T08:16:20.114Z,18.70
2022-08-21T08:18:48.904Z,18.70
2022-08-21T08:21:17.641Z,18.80
2022-08-21T08:23:46.248Z,18.80
2022-08-21T08:26:16.542Z,18.90
2022-08-21T08:28:45.059Z,19.00
2022-08-21T08:31:15.243Z,19.20
2022-08-21T08:33:43.719Z,19.40
2022-08-21T08:36:16.101Z,19.50
2022-08-21T08:38:44.506Z,19.70
2022-08-21T08:41:16.357Z,19.80
2022-08-21T08:43:51.351Z,20.00
2022-08-21T08:46:27.948Z,20.20
2022-08-21T08:49:03.952Z,20.60
2022-08-21T08:51:41.888Z,20.70
2022-08-21T08:54:14.834Z,20.70
2022-08-21T08:56:43.363Z,20.80
2022-08-21T08:59:17.514Z,20.80
2022-08-21T09:01:47.626Z,21.10
2022-08-21T09:04:23.448Z,21.20
2022-08-21T09:07:03.622Z,21.40
2022-08-21T09:09:43.143Z,21.60
2022-08-21T09:12:18.616Z,21.80
2022-08-21T09:14:59.989Z,21.90
2022-08-21T09:17:42.294Z,22.00
2022-08-21T09:20:21.273Z,21.90
2022-08-21T09:23:02.995Z,21.90
2022-08-21T09:25:36.871Z,21.90
2022-08-21T09:28:06.090Z,22.00
2022-08-21T09:30:35.751Z,22.10
2022-08-21T09:33:06.383Z,22.20
2022-08-21T09:35:38.276Z,22.30
2022-08-21T09:38:11.577Z,22.40
2022-08-21T09:40:43.772Z,22.60
2022-08-21T09:43:19.930Z,22.60
2022-08-21T09:45:50.098Z,22.60
2022-08-21T09:48:26.455Z,22.70
2022-08-21T09:51:07.244Z,22.90
2022-08-21T09:53:44.804Z,23.00
2022-08-21T09:56:55.203Z,23.10
2022-08-21T09:59:35.696Z,23.30
2022-08-21T10:02:33.846Z,23.50
2022-08-21T10:05:18.593Z,23.60
2022-08-21T10:07:48.401Z,23.60
2022-08-21T10:10:20.625Z,23.30
2022-08-21T10:13:10.572Z,23.20
2022-08-21T10:15:50.235Z,23.00
2022-08-21T10:18:42.000Z,23.00
2022-08-21T10:21:28.653Z,23.00
2022-08-21T10:24:08.239Z,23.00
2022-08-21T10:26:56.785Z,22.90
2022-08-21T10:29:48.829Z,22.70
2022-08-21T10:32:39.758Z,22.80
2022-08-21T10:35:14.784Z,22.80
2022-08-21T10:37:58.851Z,22.80
2022-08-21T10:40:44.579Z,22.70
2022-08-21T10:43:23.181Z,22.70
2022-08-21T10:45:59.645Z,22.70
2022-08-21T10:48:41.381Z,22.70
2022-08-21T10:51:29.088Z,22.70
2022-08-21T10:54:11.865Z,22.70
2022-08-21T10:56:45.378Z,22.70
2022-08-21T10:59:27.938Z,22.70
2022-08-21T11:02:02.284Z,22.50
2022-08-21T11:04:49.034Z,22.40
2022-08-21T11:07:32.259Z,22.30
2022-08-21T11:10:12.634Z,22.30
2022-08-21T11:12:51.685Z,22.40
2022-08-21T11:15:35.673Z,22.40
2022-08-21T11:18:18.042Z,22.40
2022-08-21T11:20:56.183Z,22.40
2022-08-21T11:23:30.303Z,22.40
2022-08-21T11:26:09.423Z,22.30
2022-08-21T11:28:43.523Z,22.30
2022-08-21T11:31:24.777Z,22.20
2022-08-21T11:34:13.489Z,22.00
2022-08-21T11:36:50.685Z,21.80
2022-08-21T11:39:27.484Z,21.70
2022-08-21T11:42:09.050Z,21.60
2022-08-21T11:44:48.977Z,21.50
2022-08-21T11:47:24.768Z,21.40
2022-08-21T11:50:05.206Z,21.30
2022-08-21T11:52:51.392Z,21.10
2022-08-21T11:55:28.542Z,21.00
2022-08-21T11:58:03.289Z,21.00
2022-08-21T12:00:34.876Z,21.00
2022-08-21T12:03:11.646Z,21.20
2022-08-21T12:05:46.438Z,21.20
2022-08-21T12:08:32.229Z,21.20
2022-08-21T12:11:08.031Z,21.30
2022-08-21T12:13:42.629Z,21.20
2022-08-21T12:16:16.438Z,21.00
2022-08-21T12:18:46.141Z,21.00
2022-08-21T12:21:27.501Z,21.00
2022-08-21T12:24:06.388Z,21.10
2022-08-21T12:26:38.286Z,21.30
2022-08-21T12:29:25.201Z,21.30
2022-08-21T12:32:01.160Z,21.30
2022-08-21T12:34:47.349Z,21.40
2022-08-21T12:37:28.865Z,21.40
2022-08-21T12:40:00.845Z,21.30
2022-08-21T12:42:39.686Z,21.40
2022-08-21T12:45:18.883Z,21.50
2022-08-21T12:47:53.203Z,21.50
2022-08-21T12:50:32.685Z,21.50
2022-08-21T12:53:18.537Z,21.40
2022-08-21T12:55:49.749Z,21.50
2022-08-21T12:58:22.391Z,21.50
2022-08-21T13:00:56.822Z,21.50
2022-08-21T13:03:28.595Z,21.50
2022-08-21T13:06:01.957Z,21.50
2022-08-21T13:08:31.665Z,21.60
2022-08-21T13:11:13.428Z,21.60
2022-08-21T13:13:49.909Z,21.80
2022-08-21T13:16:26.408Z,21.90
2022-08-21T13:18:58.803Z,22.00
2022-08-21T13:21:32.669Z,22.00
2022-08-21T13:24:41.188Z,22.10
2022-08-21T13:27:26.286Z,22.10
2022-08-21T13:30:09.916Z,22.00
2022-08-21T13:32:44.040Z,22.00
2022-08-21T13:35:20.741Z,22.00
2022-08-21T13:37:52.092Z,22.00
2022-08-21T13:40:32.364Z,21.90
2022-08-21T13:43:02.566Z,21.90
2022-08-21T13:45:34.594Z,21.90
2022-08-21T13:48:06.911Z,21.90
2022-08-21T13:50:38.837Z,21.90
2022-08-21T13:53:09.788Z,21.80
2022-08-21T13:55:42.582Z,21.80
2022-08-21T13:58:16.579Z,21.90
2022-08-21T14:00:49.932Z,21.80
2022-08-21T14:03:32.202Z,21.60
2022-08-21T14:06:01.259Z,21.50
2022-08-21T14:08:35.818Z,21.50
2022-08-21T14:11:06.983Z,21.40
2022-08-21T14:13:40.301Z,21.30
2022-08-21T14:16:16.554Z,21.30
2022-08-21T14:18:55.340Z,21.20
2022-08-21T14:21:33.268Z,21.20
2022-08-21T14:24:08.348Z,21.30
2022-08-21T14:26:39.596Z,21.30
2022-08-21T14:29:10.926Z,21.40
2022-08-21T14:31:43.182Z,21.30
2022-08-21T14:34:19.674Z,21.30
2022-08-21T14:36:49.849Z,21.30
2022-08-21T14:39:18.686Z,21.30
2022-08-21T14:41:49.287Z,21.40
2022-08-21T14:44:19.804Z,21.40
2022-08-21T14:46:55.911Z,21.50
2022-08-21T14:49:31.771Z,21.60
2022-08-21T14:52:00.532Z,21.60
2022-08-21T14:54:31.866Z,21.50
2022-08-21T14:57:03.895Z,21.40
2022-08-21T14:59:33.661Z,21.30
2022-08-21T15:02:02.581Z,21.30
2022-08-21T15:04:32.546Z,21.30
2022-08-21T15:07:01.008Z,21.40
2022-08-21T15:09:29.683Z,21.40
2022-08-21T15:12:01.015Z,21.30
2022-08-21T15:14:32.802Z,21.30
2022-08-21T15:17:01.344Z,21.20
2022-08-21T15:19:31.543Z,21.10
2022-08-21T15:22:00.293Z,21.10
2022-08-21T15:24:29.759Z,21.00
2022-08-21T15:27:01.241Z,21.00
2022-08-21T15:29:30.666Z,20.90
2022-08-21T15:32:03.817Z,20.90
2022-08-21T15:34:33.743Z,20.90
2022-08-21T15:37:02.065Z,20.80
2022-08-21T15:39:31.592Z,20.70
2022-08-21T15:42:10.552Z,20.80
2022-08-21T15:44:41.148Z,20.80
2022-08-21T15:47:19.215Z,20.80
2022-08-21T15:49:48.970Z,20.90
2022-08-21T15:52:18.833Z,20.80
2022-08-21T15:54:47.317Z,20.70
2022-08-21T15:57:18.410Z,20.70
2022-08-21T15:59:50.475Z,20.50
2022-08-21T16:02:23.830Z,20.50
2022-08-21T16:04:53.822Z,20.40
2022-08-21T16:07:22.144Z,20.40
2022-08-21T16:09:51.285Z,20.40
2022-08-21T16:12:24.297Z,20.30
2022-08-21T16:14:54.296Z,20.20
2022-08-21T16:17:32.182Z,20.20
2022-08-21T16:20:02.809Z,20.20
2022-08-21T16:22:36.352Z,20.10
2022-08-21T16:25:12.784Z,20.10
2022-08-21T16:27:43.262Z,20.00
2022-08-21T16:30:15.276Z,20.00
2022-08-21T16:32:44.326Z,20.00
2022-08-21T16:35:16.002Z,20.10
2022-08-21T16:37:44.618Z,20.10
2022-08-21T16:40:13.798Z,20.10
2022-08-21T16:42:43.497Z,20.10
2022-08-21T16:45:13.955Z,20.10
2022-08-21T16:47:43.137Z,20.10
2022-08-21T16:50:14.537Z,20.10
2022-08-21T16:52:43.209Z,20.10
2022-08-21T16:55:11.942Z,20.10
2022-08-21T16:57:41.242Z,20.00
2022-08-21T17:00:12.067Z,20.00
2022-08-21T17:02:46.409Z,20.00
2022-08-21T17:05:35.835Z,20.10
2022-08-21T17:08:04.854Z,20.10
2022-08-21T17:10:33.686Z,20.00
2022-08-21T17:13:06.392Z,20.10
2022-08-21T17:15:39.750Z,20.00
2022-08-21T17:18:11.926Z,20.00
2022-08-21T17:23:27.358Z,19.90
2022-08-21T17:25:58.943Z,19.90
2022-08-21T17:28:36.525Z,19.90
2022-08-21T17:31:11.598Z,19.80
2022-08-21T17:33:50.421Z,19.70
2022-08-21T17:36:23.385Z,19.70
2022-08-21T17:39:07.622Z,19.70
2022-08-21T17:41:52.355Z,19.70
2022-08-21T17:44:24.846Z,19.70
2022-08-21T17:46:53.619Z,19.70
2022-08-21T17:49:22.496Z,19.70
2022-08-21T17:51:55.158Z,19.60
2022-08-21T17:54:25.332Z,19.60
2022-08-21T17:56:55.037Z,19.60
2022-08-21T17:59:24.147Z,19.60
2022-08-21T18:01:54.478Z,19.60
2022-08-21T18:04:22.965Z,19.60
2022-08-21T18:06:52.765Z,19.60
2022-08-21T18:09:23.077Z,19.60
2022-08-21T18:11:53.292Z,19.60
2022-08-21T18:14:25.441Z,19.60
2022-08-21T18:16:54.252Z,19.50
2022-08-21T18:19:28.714Z,19.60
2022-08-21T18:22:11.026Z,19.50
2022-08-21T18:24:39.865Z,19.50
2022-08-21T18:27:32.156Z,19.50
2022-08-21T18:30:01.935Z,19.50
2022-08-21T18:32:32.384Z,19.40
2022-08-21T18:35:03.962Z,19.40
2022-08-21T18:37:34.119Z,19.40
2022-08-21T18:40:03.578Z,19.40
2022-08-21T18:42:39.657Z,19.30
2022-08-21T18:45:12.279Z,19.20
2022-08-21T18:47:45.535Z,19.20
2022-08-21T18:50:18.971Z,19.20
2022-08-21T18:52:53.773Z,19.20
2022-08-21T18:55:24.647Z,19.20
2022-08-21T18:57:57.355Z,19.20
2022-08-21T19:00:44.324Z,19.10
2022-08-21T19:03:13.708Z,19.10
2022-08-21T19:05:50.135Z,19.10
2022-08-21T19:08:23.066Z,19.10
2022-08-21T19:10:55.331Z,19.10
2022-08-21T19:13:25.273Z,19.10
2022-08-21T19:15:55.301Z,19.10
2022-08-21T19:18:37.460Z,19.00
2022-08-21T19:21:14.372Z,19.00
2022-08-21T19:23:48.196Z,19.00
2022-08-21T19:26:28.835Z,19.00
2022-08-21T19:29:02.073Z,19.00
2022-08-21T19:31:35.253Z,19.00
2022-08-21T19:34:08.908Z,19.00
2022-08-21T19:36:39.024Z,19.00
2022-08-21T19:39:12.544Z,19.00
2022-08-21T19:41:51.209Z,19.00
2022-08-21T19:44:23.911Z,19.00
2022-08-21T19:46:54.965Z,18.90
2022-08-21T19:49:28.935Z,18.90
2022-08-21T19:52:15.163Z,18.90
2022-08-21T19:55:03.145Z,18.90
2022-08-21T19:57:31.975Z,18.90
2022-08-21T20:00:02.996Z,18.90
2022-08-21T20:02:39.897Z,18.90
2022-08-21T20:05:19.806Z,18.80
2022-08-21T20:07:50.091Z,18.80
2022-08-21T20:10:20.467Z,18.80
2022-08-21T20:12:53.139Z,18.80
2022-08-21T20:15:26.576Z,18.80
2022-08-21T20:18:01.096Z,18.80
2022-08-21T20:20:30.869Z,18.80
2022-08-21T20:23:00.390Z,18.80
2022-08-21T20:25:40.993Z,18.80
2022-08-21T20:28:10.397Z,18.80
2022-08-21T20:30:38.962Z,18.80
2022-08-21T20:33:29.794Z,18.80
2022-08-21T20:36:07.611Z,18.80
2022-08-21T20:38:37.697Z,18.80
2022-08-21T20:41:10.006Z,18.80
2022-08-21T20:43:50.927Z,18.80
2022-08-21T20:46:23.305Z,18.80
2022-08-21T20:48:52.203Z,18.80
2022-08-21T20:51:25.246Z,18.80
2022-08-21T20:54:03.647Z,18.80
2022-08-21T20:56:41.621Z,18.80
2022-08-21T20:59:19.469Z,18.70
2022-08-21T21:01:51.042Z,18.80
2022-08-21T21:04:34.041Z,18.80
2022-08-21T21:07:06.555Z,18.80
2022-08-21T21:09:43.499Z,18.80
2022-08-21T21:12:19.228Z,18.70
2022-08-21T21:15:00.182Z,18.80
2022-08-21T21:17:33.569Z,18.80
2022-08-21T21:20:07.532Z,18.80
2022-08-21T21:22:44.649Z,18.80
2022-08-21T21:25:18.407Z,18.80
2022-08-21T21:27:54.293Z,18.70
2022-08-21T21:30:26.011Z,18.70
2022-08-21T21:32:54.550Z,18.80
2022-08-21T21:35:33.097Z,18.70
2022-08-21T21:38:17.777Z,18.70
2022-08-21T21:41:01.205Z,18.70
2022-08-21T21:43:51.008Z,18.70
2022-08-21T21:46:31.328Z,18.70
2022-08-21T21:49:23.802Z,18.70
2022-08-21T21:52:03.579Z,18.70
2022-08-21T21:54:53.062Z,18.70
2022-08-21T21:57:42.480Z,18.70
2022-08-21T22:00:18.543Z,18.70
2022-08-21T22:03:00.403Z,18.70
2022-08-21T22:05:42.323Z,18.70
2022-08-21T22:08:20.066Z,18.60
2022-08-21T22:10:53.922Z,18.60
2022-08-21T22:13:29.965Z,18.70
2022-08-21T22:16:05.900Z,18.60
2022-08-21T22:18:38.723Z,18.70
2022-08-21T22:21:19.141Z,18.60
2022-08-21T22:23:58.398Z,18.60
2022-08-21T22:26:35.385Z,18.60
2022-08-21T22:29:05.679Z,18.70
2022-08-21T22:34:24.907Z,18.60
2022-08-21T22:36:59.357Z,18.60
2022-08-21T22:39:34.501Z,18.60
2022-08-21T22:42:10.886Z,18.60
2022-08-21T22:47:42.987Z,18.60
2022-08-21T22:50:21.635Z,18.60
2022-08-21T22:52:56.934Z,18.60
2022-08-21T22:55:28.763Z,18.60
2022-08-21T22:58:08.763Z,18.60
2022-08-21T23:00:48.285Z,18.60
2022-08-21T23:03:31.773Z,18.60
2022-08-21T23:06:12.753Z,18.60
2022-08-21T23:08:44.143Z,18.60
2022-08-21T23:11:15.601Z,18.60
2022-08-21T23:13:48.873Z,18.60
2022-08-21T23:16:35.905Z,18.50
2022-08-21T23:19:12.897Z,18.50
2022-08-21T23:21:50.071Z,18.50
2022-08-21T23:24:46.627Z,18.50
2022-08-21T23:27:35.723Z,18.50
2022-08-21T23:30:10.530Z,18.50
2022-08-21T23:33:00.346Z,18.50
2022-08-21T23:35:58.839Z,18.50
2022-08-21T23:38:42.894Z,18.40
2022-08-21T23:41:20.432Z,18.40
2022-08-21T23:44:12.392Z,18.50
2022-08-21T23:46:53.617Z,18.50
2022-08-21T23:49:36.144Z,18.50
2022-08-21T23:52:22.742Z,18.40
2022-08-21T23:55:04.432Z,18.50
2022-08-21T23:57:50.944Z,18.50
